createdAt,value
2017-11-22T00:00:19.012Z,99.51
2017-11-22T00:01:19.007Z,99.60
2017-11-22T00:02:19.001Z,99.60
2017-11-22T00:03:18.996Z,99.60
2017-11-22T00:04:18.985Z,99.89
2017-11-22T00:05:18.979Z,99.60
2017-11-22T00:06:18.977Z,99.41
2017-11-22T00:07:18.969Z,99.51
2017-11-22T00:08:18.963Z,99.60
2017-11-22T00:09:18.960Z,99.99
2017-11-22T00:10:18.952Z,99.13
2017-11-22T00:11:18.947Z,99.51
2017-11-22T00:12:18.945Z,99.80
2017-11-22T00:13:18.940Z,99.13
2017-11-22T00:14:18.934Z,98.99
2017-11-22T00:15:18.929Z,99.13
2017-11-22T00:16:18.924Z,99.04
2017-11-22T00:17:18.916Z,99.22
2017-11-22T00:18:18.912Z,98.85
2017-11-22T00:19:18.906Z,99.37
2017-11-22T00:20:18.895Z,99.04
2017-11-22T00:21:18.890Z,99.32
2017-11-22T00:22:18.889Z,98.65
2017-11-22T00:23:18.879Z,98.90
2017-11-22T00:24:18.873Z,98.94
2017-11-22T00:25:18.868Z,99.18
2017-11-22T00:26:18.867Z,99.22
2017-11-22T00:27:18.856Z,99.13
2017-11-22T00:28:18.853Z,99.13
2017-11-22T00:29:18.851Z,99.04
2017-11-22T00:30:18.842Z,98.94
2017-11-22T00:31:18.846Z,99.70
2017-11-22T00:32:18.831Z,99.66
2017-11-22T00:33:18.826Z,99.70
2017-11-22T00:34:18.821Z,98.90
2017-11-22T00:35:18.814Z,99.46
2017-11-22T00:36:18.805Z,98.61
2017-11-22T00:37:18.799Z,98.80
2017-11-22T00:38:18.796Z,98.85
2017-11-22T00:39:18.788Z,98.94
2017-11-22T00:40:18.782Z,99.08
2017-11-22T00:41:18.776Z,98.94
2017-11-22T00:42:18.778Z,99.18
2017-11-22T00:43:18.766Z,99.13
2017-11-22T00:44:18.764Z,99.37
2017-11-22T00:45:18.758Z,98.99
2017-11-22T00:46:18.754Z,98.85
2017-11-22T00:47:18.753Z,99.41
2017-11-22T00:48:18.741Z,98.94
2017-11-22T00:49:18.736Z,99.85
2017-11-22T00:50:18.730Z,99.27
2017-11-22T00:51:18.725Z,98.90
2017-11-22T00:52:18.715Z,99.46
2017-11-22T00:53:18.708Z,98.99
2017-11-22T00:54:18.703Z,98.94
2017-11-22T00:55:18.699Z,98.61
2017-11-22T00:56:18.698Z,98.70
2017-11-22T00:57:18.685Z,98.61
2017-11-22T00:58:18.681Z,98.99
2017-11-22T00:59:18.676Z,98.61
2017-11-22T01:00:18.674Z,98.42
2017-11-22T01:01:18.670Z,98.61
2017-11-22T01:02:18.664Z,98.90
2017-11-22T01:03:18.658Z,98.56
2017-11-22T01:04:18.652Z,99.18
2017-11-22T01:05:18.645Z,98.65
2017-11-22T01:06:18.641Z,98.65
2017-11-22T01:07:18.635Z,99.13
2017-11-22T01:08:18.627Z,99.18
2017-11-22T01:09:18.621Z,99.08
2017-11-22T01:10:18.614Z,99.18
2017-11-22T01:11:18.609Z,99.56
2017-11-22T01:12:18.608Z,98.99
2017-11-22T01:13:18.601Z,98.99
2017-11-22T01:14:18.597Z,98.90
2017-11-22T01:15:18.591Z,99.18
2017-11-22T01:16:18.581Z,98.70
2017-11-22T01:17:18.576Z,99.08
2017-11-22T01:18:18.570Z,99.08
2017-11-22T01:19:18.565Z,98.51
2017-11-22T01:20:18.559Z,98.70
2017-11-22T01:21:18.552Z,98.90
2017-11-22T01:22:18.551Z,99.08
2017-11-22T01:23:18.543Z,98.99
2017-11-22T01:24:18.540Z,98.99
2017-11-22T01:25:18.534Z,99.18
2017-11-22T01:26:18.531Z,98.70
2017-11-22T01:27:18.525Z,98.61
2017-11-22T01:28:18.518Z,98.03
2017-11-22T01:29:18.522Z,99.18
2017-11-22T01:30:18.508Z,98.90
2017-11-22T01:31:18.502Z,98.70
2017-11-22T01:32:18.493Z,98.99
2017-11-22T01:33:18.486Z,98.61
2017-11-22T01:34:18.483Z,99.08
2017-11-22T01:35:18.477Z,98.90
2017-11-22T01:36:18.478Z,98.70
2017-11-22T01:37:18.467Z,98.13
2017-11-22T01:38:18.460Z,98.32
2017-11-22T01:39:18.456Z,98.22
2017-11-22T01:40:18.454Z,98.22
2017-11-22T01:41:18.449Z,98.03
2017-11-22T01:42:18.443Z,98.13
2017-11-22T01:43:18.437Z,98.90
2017-11-22T01:44:18.431Z,98.61
2017-11-22T01:45:18.425Z,98.99
2017-11-22T01:46:18.421Z,98.51
2017-11-22T01:47:18.416Z,98.61
2017-11-22T01:48:18.404Z,98.61
2017-11-22T01:49:18.399Z,98.70
2017-11-22T01:50:18.394Z,98.99
2017-11-22T01:51:18.393Z,98.90
2017-11-22T01:52:18.381Z,98.70
2017-11-22T01:53:18.378Z,98.70
2017-11-22T01:54:18.372Z,98.42
2017-11-22T01:55:18.367Z,98.42
2017-11-22T01:56:18.365Z,98.61
2017-11-22T01:57:18.364Z,98.61
2017-11-22T01:58:18.355Z,98.03
2017-11-22T01:59:18.348Z,98.03
2017-11-22T02:00:18.343Z,98.61
2017-11-22T02:01:18.336Z,98.61
2017-11-22T02:02:18.333Z,98.51
2017-11-22T02:03:18.329Z,98.80
2017-11-22T02:04:18.316Z,98.51
2017-11-22T02:05:18.314Z,98.61
2017-11-22T02:06:18.306Z,98.22
2017-11-22T02:07:18.302Z,97.85
2017-11-22T02:08:18.297Z,98.42
2017-11-22T02:09:18.289Z,98.32
2017-11-22T02:10:18.287Z,98.22
2017-11-22T02:11:18.279Z,98.42
2017-11-22T02:12:18.277Z,98.51
2017-11-22T02:13:18.274Z,98.22
2017-11-22T02:14:18.267Z,98.42
2017-11-22T02:15:18.264Z,98.42
2017-11-22T02:16:18.250Z,98.42
2017-11-22T02:17:18.255Z,98.32
2017-11-22T02:18:18.240Z,98.32
2017-11-22T02:19:18.236Z,98.22
2017-11-22T02:20:18.234Z,98.13
2017-11-22T02:21:18.230Z,98.22
2017-11-22T02:22:18.223Z,98.13
2017-11-22T02:23:18.218Z,97.75
2017-11-22T02:24:18.212Z,97.94
2017-11-22T02:25:18.208Z,97.66
2017-11-22T02:26:18.211Z,97.75
2017-11-22T02:27:18.198Z,98.03
2017-11-22T02:28:18.187Z,97.75
2017-11-22T02:29:18.185Z,97.85
2017-11-22T02:30:18.182Z,97.66
2017-11-22T02:31:18.171Z,97.17
2017-11-22T02:32:18.166Z,97.27
2017-11-22T02:33:18.160Z,96.89
2017-11-22T02:34:18.156Z,97.46
2017-11-22T02:35:18.149Z,97.37
2017-11-22T02:36:18.148Z,97.37
2017-11-22T02:37:18.144Z,97.27
2017-11-22T02:38:18.137Z,97.46
2017-11-22T02:39:18.132Z,97.66
2017-11-22T02:40:18.125Z,96.89
2017-11-22T02:41:18.119Z,97.27
2017-11-22T02:42:18.116Z,97.46
2017-11-22T02:43:18.112Z,97.46
2017-11-22T02:44:18.099Z,97.85
2017-11-22T02:45:18.097Z,97.08
2017-11-22T02:46:18.089Z,97.66
2017-11-22T02:47:18.086Z,97.94
2017-11-22T02:48:18.080Z,96.89
2017-11-22T02:49:18.072Z,97.17
2017-11-22T02:50:18.068Z,97.85
2017-11-22T02:51:18.064Z,97.08
2017-11-22T02:52:18.062Z,97.27
2017-11-22T02:53:18.056Z,96.89
2017-11-22T02:54:18.054Z,97.66
2017-11-22T02:55:18.047Z,97.08
2017-11-22T02:56:18.046Z,97.27
2017-11-22T02:57:18.034Z,97.66
2017-11-22T02:58:18.032Z,96.98
2017-11-22T02:59:18.025Z,96.98
2017-11-22T03:00:18.015Z,96.98
2017-11-22T03:01:18.010Z,96.80
2017-11-22T03:02:18.005Z,96.80
2017-11-22T03:03:18.000Z,96.80
2017-11-22T03:04:17.993Z,96.70
2017-11-22T03:05:17.996Z,97.17
2017-11-22T03:06:17.982Z,96.41
2017-11-22T03:07:17.978Z,97.08
2017-11-22T03:08:17.977Z,96.66
2017-11-22T03:09:17.970Z,96.32
2017-11-22T03:10:17.966Z,96.32
2017-11-22T03:11:17.961Z,96.51
2017-11-22T03:12:17.955Z,96.37
2017-11-22T03:13:17.949Z,96.51
2017-11-22T03:14:17.944Z,96.61
2017-11-22T03:15:17.940Z,96.13
2017-11-22T03:16:17.932Z,96.03
2017-11-22T03:17:17.925Z,96.13
2017-11-22T03:18:17.919Z,95.98
2017-11-22T03:19:17.915Z,95.70
2017-11-22T03:20:17.912Z,95.98
2017-11-22T03:21:17.907Z,96.03
2017-11-22T03:22:17.901Z,95.70
2017-11-22T03:23:17.896Z,96.27
2017-11-22T03:24:17.887Z,95.56
2017-11-22T03:25:17.881Z,95.65
2017-11-22T03:26:17.876Z,96.22
2017-11-22T03:27:17.872Z,96.22
2017-11-22T03:28:17.864Z,95.46
2017-11-22T03:29:17.859Z,95.65
2017-11-22T03:30:17.857Z,96.27
2017-11-22T03:31:17.853Z,96.17
2017-11-22T03:32:17.849Z,96.08
2017-11-22T03:33:17.850Z,96.03
2017-11-22T03:34:17.838Z,96.13
2017-11-22T03:35:17.834Z,96.03
2017-11-22T03:36:17.828Z,95.56
2017-11-22T03:37:17.824Z,95.65
2017-11-22T03:38:17.820Z,95.75
2017-11-22T03:39:17.811Z,95.79
2017-11-22T03:40:17.802Z,95.08
2017-11-22T03:41:17.796Z,95.17
2017-11-22T03:42:17.791Z,95.27
2017-11-22T03:43:17.786Z,94.93
2017-11-22T03:44:17.780Z,95.41
2017-11-22T03:45:17.775Z,95.03
2017-11-22T03:46:17.770Z,95.22
2017-11-22T03:47:17.777Z,94.74
2017-11-22T03:48:17.763Z,95.61
2017-11-22T03:49:17.757Z,94.93
2017-11-22T03:50:17.752Z,94.98
2017-11-22T03:51:17.749Z,94.70
2017-11-22T03:52:17.742Z,94.79
2017-11-22T03:53:17.736Z,94.60
2017-11-22T03:54:17.732Z,94.79
2017-11-22T03:55:17.727Z,94.70
2017-11-22T03:56:17.716Z,94.65
2017-11-22T03:57:17.711Z,94.65
2017-11-22T03:58:17.705Z,94.27
2017-11-22T03:59:17.702Z,94.46
2017-11-22T04:00:17.694Z,94.84
2017-11-22T04:01:17.689Z,94.46
2017-11-22T04:02:17.684Z,94.56
2017-11-22T04:03:17.680Z,94.36
2017-11-22T04:04:17.683Z,94.56
2017-11-22T04:05:17.674Z,94.46
2017-11-22T04:06:17.667Z,94.07
2017-11-22T04:07:17.673Z,94.46
2017-11-22T04:08:17.656Z,94.56
2017-11-22T04:09:17.651Z,93.70
2017-11-22T04:10:17.647Z,94.07
2017-11-22T04:11:17.643Z,94.17
2017-11-22T04:12:17.630Z,94.32
2017-11-22T04:13:17.626Z,94.22
2017-11-22T04:14:17.621Z,94.51
2017-11-22T04:15:17.617Z,94.46
2017-11-22T04:16:17.609Z,94.07
2017-11-22T04:17:17.607Z,94.03
2017-11-22T04:18:17.600Z,93.98
2017-11-22T04:19:17.595Z,94.27
2017-11-22T04:20:17.593Z,94.51
2017-11-22T04:21:17.588Z,94.56
2017-11-22T04:22:17.584Z,94.22
2017-11-22T04:23:17.577Z,94.22
2017-11-22T04:24:17.567Z,94.56
2017-11-22T04:25:17.563Z,94.22
2017-11-22T04:26:17.562Z,94.41
2017-11-22T04:27:17.563Z,94.46
2017-11-22T04:28:17.551Z,94.46
2017-11-22T04:29:17.546Z,94.51
2017-11-22T04:30:17.541Z,94.93
2017-11-22T04:31:17.535Z,94.84
2017-11-22T04:32:17.531Z,94.41
2017-11-22T04:33:17.524Z,94.60
2017-11-22T04:34:17.520Z,94.27
2017-11-22T04:35:17.514Z,94.17
2017-11-22T04:36:17.503Z,94.17
2017-11-22T04:37:17.499Z,94.46
2017-11-22T04:38:17.494Z,94.46
2017-11-22T04:39:17.490Z,94.22
2017-11-22T04:40:17.487Z,94.46
2017-11-22T04:41:17.478Z,93.98
2017-11-22T04:42:17.474Z,93.70
2017-11-22T04:43:17.467Z,94.56
2017-11-22T04:44:17.465Z,94.12
2017-11-22T04:45:17.462Z,94.36
2017-11-22T04:46:17.459Z,93.70
2017-11-22T04:47:17.452Z,93.98
2017-11-22T04:48:17.447Z,93.79
2017-11-22T04:49:17.439Z,93.98
2017-11-22T04:50:17.435Z,94.56
2017-11-22T04:51:17.429Z,94.32
2017-11-22T04:52:17.419Z,94.32
2017-11-22T04:53:17.421Z,94.46
2017-11-22T04:54:17.409Z,94.32
2017-11-22T04:55:17.405Z,94.41
2017-11-22T04:56:17.407Z,93.93
2017-11-22T04:57:17.393Z,94.12
2017-11-22T04:58:17.389Z,94.51
2017-11-22T04:59:17.382Z,94.22
2017-11-22T05:00:17.384Z,94.32
2017-11-22T05:01:17.376Z,94.32
2017-11-22T05:02:17.372Z,94.51
2017-11-22T05:03:17.366Z,94.22
2017-11-22T05:04:17.360Z,93.98
2017-11-22T05:05:17.356Z,94.07
2017-11-22T05:06:17.351Z,93.84
2017-11-22T05:07:17.345Z,93.84
2017-11-22T05:08:17.336Z,94.56
2017-11-22T05:09:17.331Z,94.22
2017-11-22T05:10:17.325Z,94.56
2017-11-22T05:11:17.320Z,94.60
2017-11-22T05:12:17.314Z,94.32
2017-11-22T05:13:17.308Z,94.22
2017-11-22T05:14:17.303Z,94.60
2017-11-22T05:15:17.299Z,94.60
2017-11-22T05:16:17.295Z,94.22
2017-11-22T05:17:17.291Z,94.41
2017-11-22T05:18:17.287Z,93.74
2017-11-22T05:19:17.283Z,93.65
2017-11-22T05:20:17.276Z,94.36
2017-11-22T05:21:17.271Z,94.07
2017-11-22T05:22:17.266Z,94.07
2017-11-22T05:23:17.262Z,94.36
2017-11-22T05:24:17.251Z,94.56
2017-11-22T05:25:17.246Z,94.41
2017-11-22T05:26:17.240Z,94.17
2017-11-22T05:27:17.250Z,94.03
2017-11-22T05:28:17.233Z,94.03
2017-11-22T05:29:17.229Z,94.60
2017-11-22T05:30:17.222Z,94.51
2017-11-22T05:31:17.218Z,94.41
2017-11-22T05:32:17.209Z,94.07
2017-11-22T05:33:17.203Z,94.51
2017-11-22T05:34:17.197Z,93.84
2017-11-22T05:35:17.192Z,93.98
2017-11-22T05:36:17.186Z,93.84
2017-11-22T05:37:17.182Z,93.84
2017-11-22T05:38:17.176Z,93.74
2017-11-22T05:39:17.172Z,93.79
2017-11-22T05:40:17.170Z,94.41
2017-11-22T05:41:17.165Z,94.22
2017-11-22T05:42:17.162Z,94.65
2017-11-22T05:43:17.155Z,94.32
2017-11-22T05:44:17.151Z,94.03
2017-11-22T05:45:17.143Z,94.22
2017-11-22T05:46:17.140Z,94.12
2017-11-22T05:47:17.134Z,94.36
2017-11-22T05:48:17.124Z,94.07
2017-11-22T05:49:17.119Z,94.12
2017-11-22T05:50:17.114Z,93.84
2017-11-22T05:51:17.109Z,93.98
2017-11-22T05:52:17.103Z,93.93
2017-11-22T05:53:17.097Z,94.12
2017-11-22T05:54:17.093Z,94.12
2017-11-22T05:55:17.088Z,94.27
2017-11-22T05:56:17.086Z,93.79
2017-11-22T05:57:17.081Z,93.74
2017-11-22T05:58:17.077Z,94.22
2017-11-22T05:59:17.074Z,93.88
2017-11-22T06:00:17.063Z,93.65
2017-11-22T06:01:17.060Z,93.84
2017-11-22T06:02:17.057Z,93.98
2017-11-22T06:03:17.051Z,94.03
2017-11-22T06:04:17.039Z,93.84
2017-11-22T06:05:17.034Z,93.79
2017-11-22T06:06:17.029Z,93.46
2017-11-22T06:07:17.025Z,94.07
2017-11-22T06:08:17.019Z,93.36
2017-11-22T06:09:17.013Z,94.07
2017-11-22T06:10:17.010Z,94.07
2017-11-22T06:11:17.004Z,94.27
2017-11-22T06:12:17.002Z,93.88
2017-11-22T06:13:16.997Z,93.98
2017-11-22T06:14:16.994Z,94.12
2017-11-22T06:15:16.986Z,93.36
2017-11-22T06:16:16.981Z,93.74
2017-11-22T06:17:16.975Z,93.84
2017-11-22T06:18:16.969Z,93.55
2017-11-22T06:19:16.967Z,93.84
2017-11-22T06:20:16.956Z,93.84
2017-11-22T06:21:16.949Z,94.03
2017-11-22T06:22:16.944Z,93.79
2017-11-22T06:23:16.940Z,93.12
2017-11-22T06:24:16.934Z,93.22
2017-11-22T06:25:16.930Z,93.02
2017-11-22T06:26:16.923Z,93.41
2017-11-22T06:27:16.919Z,93.51
2017-11-22T06:28:16.922Z,93.51
2017-11-22T06:29:16.915Z,93.27
2017-11-22T06:30:16.907Z,94.07
2017-11-22T06:31:16.903Z,93.08
2017-11-22T06:32:16.893Z,93.27
2017-11-22T06:33:16.889Z,93.31
2017-11-22T06:34:16.881Z,93.60
2017-11-22T06:35:16.877Z,93.41
2017-11-22T06:36:16.875Z,93.46
2017-11-22T06:37:16.872Z,93.31
2017-11-22T06:38:16.864Z,93.51
2017-11-22T06:39:16.860Z,93.12
2017-11-22T06:40:16.854Z,93.41
2017-11-22T06:41:16.849Z,93.98
2017-11-22T06:42:16.844Z,93.98
2017-11-22T06:43:16.840Z,93.12
2017-11-22T06:44:16.828Z,93.98
2017-11-22T06:45:16.825Z,93.60
2017-11-22T06:46:16.820Z,93.60
2017-11-22T06:47:16.817Z,94.07
2017-11-22T06:48:16.808Z,93.22
2017-11-22T06:49:16.804Z,93.51
2017-11-22T06:50:16.800Z,93.31
2017-11-22T06:51:16.794Z,93.51
2017-11-22T06:52:16.795Z,93.51
2017-11-22T06:53:16.786Z,93.60
2017-11-22T06:54:16.783Z,93.51
2017-11-22T06:55:16.799Z,93.70
2017-11-22T06:56:16.771Z,93.31
2017-11-22T06:57:16.767Z,93.41
2017-11-22T06:58:16.763Z,93.41
2017-11-22T06:59:16.758Z,93.51
2017-11-22T07:00:16.747Z,93.60
2017-11-22T07:01:16.742Z,93.60
2017-11-22T07:02:16.737Z,93.60
2017-11-22T07:03:16.737Z,93.70
2017-11-22T07:04:16.728Z,93.51
2017-11-22T07:05:16.723Z,93.88
2017-11-22T07:06:16.716Z,93.51
2017-11-22T07:07:16.714Z,93.70
2017-11-22T07:08:16.712Z,93.60
2017-11-22T07:09:16.706Z,93.22
2017-11-22T07:10:16.703Z,93.70
2017-11-22T07:11:16.697Z,93.51
2017-11-22T07:12:16.690Z,93.22
2017-11-22T07:13:16.685Z,93.88
2017-11-22T07:14:16.682Z,93.79
2017-11-22T07:15:16.677Z,93.70
2017-11-22T07:16:16.668Z,93.79
2017-11-22T07:17:16.662Z,92.74
2017-11-22T07:18:16.668Z,93.51
2017-11-22T07:19:16.651Z,93.60
2017-11-22T07:20:16.648Z,93.51
2017-11-22T07:21:16.643Z,93.60
2017-11-22T07:22:16.637Z,93.41
2017-11-22T07:23:16.632Z,93.70
2017-11-22T07:24:16.630Z,93.60
2017-11-22T07:25:16.626Z,93.70
2017-11-22T07:26:16.626Z,93.60
2017-11-22T07:27:16.618Z,93.60
2017-11-22T07:28:16.613Z,93.70
2017-11-22T07:29:16.606Z,93.60
2017-11-22T07:30:16.602Z,93.41
2017-11-22T07:31:16.596Z,93.51
2017-11-22T07:32:16.587Z,93.41
2017-11-22T07:33:16.587Z,93.60
2017-11-22T07:34:16.581Z,93.12
2017-11-22T07:35:16.576Z,93.60
2017-11-22T07:36:16.573Z,93.70
2017-11-22T07:37:16.566Z,93.70
2017-11-22T07:38:16.562Z,93.60
2017-11-22T07:39:16.557Z,93.51
2017-11-22T07:40:16.547Z,93.12
2017-11-22T07:41:16.544Z,92.98
2017-11-22T07:42:16.537Z,93.60
2017-11-22T07:43:16.532Z,93.31
2017-11-22T07:44:16.527Z,93.51
2017-11-22T07:45:16.522Z,93.51
2017-11-22T07:46:16.539Z,93.51
2017-11-22T07:47:16.514Z,93.60
2017-11-22T07:48:16.513Z,93.60
2017-11-22T07:49:16.511Z,93.60
2017-11-22T07:50:16.502Z,93.22
2017-11-22T07:51:16.499Z,93.41
2017-11-22T07:52:16.492Z,93.60
2017-11-22T07:53:16.488Z,92.93
2017-11-22T07:54:16.484Z,93.51
2017-11-22T07:55:16.478Z,93.12
2017-11-22T07:56:16.469Z,93.02
2017-11-22T07:57:16.465Z,93.02
2017-11-22T07:58:16.472Z,93.02
2017-11-22T07:59:16.455Z,93.02
2017-11-22T08:00:16.458Z,92.93
2017-11-22T08:01:16.445Z,92.93
2017-11-22T08:02:16.439Z,93.31
2017-11-22T08:03:16.456Z,92.83
2017-11-22T08:04:16.434Z,92.93
2017-11-22T08:05:16.430Z,93.31
2017-11-22T08:06:16.425Z,92.46
2017-11-22T08:07:16.422Z,92.36
2017-11-22T08:08:16.416Z,93.31
2017-11-22T08:09:16.410Z,93.31
2017-11-22T08:10:16.406Z,93.12
2017-11-22T08:11:16.402Z,92.65
2017-11-22T08:12:16.392Z,92.55
2017-11-22T08:13:16.387Z,92.65
2017-11-22T08:14:16.384Z,92.46
2017-11-22T08:15:16.377Z,92.74
2017-11-22T08:16:16.372Z,93.41
2017-11-22T08:17:16.369Z,93.41
2017-11-22T08:18:16.362Z,93.12
2017-11-22T08:19:16.357Z,93.41
2017-11-22T08:20:16.361Z,93.02
2017-11-22T08:21:16.352Z,93.41
2017-11-22T08:22:16.348Z,93.31
2017-11-22T08:23:16.342Z,92.55
2017-11-22T08:24:16.339Z,92.83
2017-11-22T08:25:16.334Z,92.74
2017-11-22T08:26:16.330Z,92.93
2017-11-22T08:27:16.325Z,93.02
2017-11-22T08:28:16.314Z,92.83
2017-11-22T08:29:16.311Z,92.83
2017-11-22T08:30:16.304Z,92.74
2017-11-22T08:31:16.301Z,92.83
2017-11-22T08:32:16.295Z,92.55
2017-11-22T08:33:16.290Z,92.93
2017-11-22T08:34:16.286Z,92.26
2017-11-22T08:35:16.281Z,92.46
2017-11-22T08:36:16.290Z,92.55
2017-11-22T08:37:16.278Z,92.17
2017-11-22T08:38:16.274Z,92.26
2017-11-22T08:39:16.266Z,91.78
2017-11-22T08:40:16.262Z,92.36
2017-11-22T08:41:16.257Z,92.55
2017-11-22T08:42:16.252Z,92.26
2017-11-22T08:43:16.247Z,91.98
2017-11-22T08:44:16.267Z,92.55
2017-11-22T08:45:16.234Z,92.07
2017-11-22T08:46:16.229Z,91.98
2017-11-22T08:47:16.225Z,91.98
2017-11-22T08:48:16.218Z,92.17
2017-11-22T08:49:16.216Z,92.07
2017-11-22T08:50:16.211Z,92.46
2017-11-22T08:51:16.214Z,92.26
2017-11-22T08:52:16.204Z,92.17
2017-11-22T08:53:16.200Z,92.17
2017-11-22T08:54:16.196Z,92.17
2017-11-22T08:55:16.191Z,92.36
2017-11-22T08:56:16.186Z,92.46
2017-11-22T08:57:16.184Z,92.55
2017-11-22T08:58:16.177Z,92.07
2017-11-22T08:59:16.173Z,92.17
2017-11-22T09:00:16.165Z,92.17
2017-11-22T09:01:16.165Z,92.17
2017-11-22T09:02:16.156Z,91.93
2017-11-22T09:03:16.151Z,92.17
2017-11-22T09:04:16.146Z,92.17
2017-11-22T09:05:16.141Z,91.88
2017-11-22T09:06:16.137Z,92.17
2017-11-22T09:07:16.133Z,92.46
2017-11-22T09:08:16.131Z,92.55
2017-11-22T09:09:16.127Z,92.36
2017-11-22T09:10:16.124Z,91.88
2017-11-22T09:11:16.119Z,91.69
2017-11-22T09:12:16.113Z,91.78
2017-11-22T09:13:16.109Z,91.98
2017-11-22T09:14:16.106Z,91.98
2017-11-22T09:15:16.102Z,91.83
2017-11-22T09:16:16.110Z,92.60
2017-11-22T09:17:16.087Z,91.93
2017-11-22T09:18:16.085Z,90.93
2017-11-22T09:19:16.079Z,91.55
2017-11-22T09:20:16.073Z,91.50
2017-11-22T09:21:16.071Z,91.78
2017-11-22T09:22:16.072Z,91.83
2017-11-22T09:23:16.062Z,91.45
2017-11-22T09:24:16.062Z,91.31
2017-11-22T09:25:16.057Z,91.21
2017-11-22T09:26:16.053Z,91.21
2017-11-22T09:27:16.049Z,91.64
2017-11-22T09:28:16.044Z,91.50
2017-11-22T09:29:16.054Z,91.12
2017-11-22T09:30:16.035Z,90.88
2017-11-22T09:31:16.032Z,91.36
2017-11-22T09:32:16.022Z,90.78
2017-11-22T09:33:16.018Z,90.59
2017-11-22T09:34:16.015Z,90.78
2017-11-22T09:35:16.010Z,90.78
2017-11-22T09:36:16.006Z,89.97
2017-11-22T09:37:16.003Z,90.25
2017-11-22T09:38:15.999Z,89.68
2017-11-22T09:39:15.994Z,89.87
2017-11-22T09:40:15.994Z,89.44
2017-11-22T09:41:15.991Z,87.82
2017-11-22T09:42:15.986Z,87.82
2017-11-22T09:43:15.983Z,87.15
2017-11-22T09:44:15.975Z,86.47
2017-11-22T09:45:16.017Z,86.28
2017-11-22T09:46:15.968Z,84.75
2017-11-22T09:47:15.966Z,82.93
2017-11-22T09:48:15.967Z,82.93
2017-11-22T09:49:15.963Z,82.54
2017-11-22T09:50:15.960Z,82.78
2017-11-22T09:51:15.960Z,81.05
2017-11-22T09:52:15.957Z,80.33
2017-11-22T09:53:15.954Z,79.81
2017-11-22T09:54:15.953Z,79.77
2017-11-22T09:55:15.952Z,80.02
2017-11-22T09:56:15.947Z,81.03
2017-11-22T09:57:15.947Z,82.08
2017-11-22T09:58:15.943Z,83.08
2017-11-22T09:59:15.944Z,82.98
2017-11-22T10:00:15.942Z,82.60
2017-11-22T10:01:15.941Z,83.08
2017-11-22T10:02:15.973Z,82.51
2017-11-22T10:03:15.939Z,82.45
2017-11-22T10:04:15.941Z,81.78
2017-11-22T10:05:15.939Z,81.25
2017-11-22T10:06:15.940Z,79.91
2017-11-22T10:07:15.940Z,79.52
2017-11-22T10:08:15.937Z,79.91
2017-11-22T10:09:15.936Z,79.95
2017-11-22T10:10:15.936Z,79.66
2017-11-22T10:11:15.937Z,78.95
2017-11-22T10:12:15.933Z,79.14
2017-11-22T10:13:15.929Z,79.33
2017-11-22T10:14:15.932Z,78.95
2017-11-22T10:15:15.929Z,79.05
2017-11-22T10:16:15.930Z,79.47
2017-11-22T10:17:15.930Z,79.37
2017-11-22T10:18:15.928Z,79.18
2017-11-22T10:19:15.937Z,79.14
2017-11-22T10:20:15.933Z,78.72
2017-11-22T10:21:15.933Z,78.91
2017-11-22T10:22:15.932Z,80.16
2017-11-22T10:23:15.968Z,79.96
2017-11-22T10:24:15.937Z,79.96
2017-11-22T10:25:15.940Z,79.68
2017-11-22T10:26:15.933Z,79.96
2017-11-22T10:27:15.933Z,79.72
2017-11-22T10:28:15.931Z,80.06
2017-11-22T10:29:15.948Z,79.54
2017-11-22T10:30:15.930Z,79.73
2017-11-22T10:31:15.929Z,80.50
2017-11-22T10:32:15.928Z,80.79
2017-11-22T10:33:15.929Z,81.07
2017-11-22T10:34:15.929Z,80.79
2017-11-22T10:35:15.930Z,81.93
2017-11-22T10:36:15.932Z,81.84
2017-11-22T10:37:15.936Z,82.03
2017-11-22T10:38:15.931Z,82.41
2017-11-22T10:39:15.933Z,82.22
2017-11-22T10:40:15.931Z,82.31
2017-11-22T10:41:15.931Z,82.70
2017-11-22T10:42:15.932Z,82.12
2017-11-22T10:43:15.931Z,82.31
2017-11-22T10:44:15.924Z,82.45
2017-11-22T10:45:15.929Z,81.88
2017-11-22T10:46:15.925Z,81.88
2017-11-22T10:47:15.925Z,81.25
2017-11-22T10:48:15.928Z,80.48
2017-11-22T10:49:15.928Z,79.72
2017-11-22T10:50:15.926Z,79.75
2017-11-22T10:51:15.925Z,79.13
2017-11-22T10:52:15.924Z,78.84
2017-11-22T10:53:15.921Z,77.92
2017-11-22T10:54:15.922Z,77.44
2017-11-22T10:55:15.954Z,76.25
2017-11-22T10:56:15.922Z,75.54
2017-11-22T10:57:15.923Z,76.12
2017-11-22T10:58:15.924Z,76.31
2017-11-22T10:59:15.924Z,76.56
2017-11-22T11:00:15.928Z,77.26
2017-11-22T11:01:15.931Z,77.61
2017-11-22T11:02:15.932Z,77.70
2017-11-22T11:03:15.935Z,78.05
2017-11-22T11:04:15.931Z,78.81
2017-11-22T11:05:15.934Z,78.43
2017-11-22T11:06:15.936Z,78.24
2017-11-22T11:07:15.934Z,78.81
2017-11-22T11:08:15.929Z,79.10
2017-11-22T11:09:15.933Z,79.29
2017-11-22T11:10:15.933Z,79.10
2017-11-22T11:11:15.938Z,79.49
2017-11-22T11:12:15.929Z,80.16
2017-11-22T11:13:15.931Z,80.02
2017-11-22T11:14:15.930Z,80.35
2017-11-22T11:15:15.930Z,79.68
2017-11-22T11:16:15.933Z,79.87
2017-11-22T11:17:15.939Z,79.96
2017-11-22T11:18:15.933Z,79.62
2017-11-22T11:19:15.935Z,79.00
2017-11-22T11:20:15.932Z,79.00
2017-11-22T11:21:15.932Z,79.49
2017-11-22T11:22:15.932Z,79.62
2017-11-22T11:23:15.931Z,79.43
2017-11-22T11:24:15.925Z,79.14
2017-11-22T11:25:15.928Z,79.10
2017-11-22T11:26:15.925Z,79.05
2017-11-22T11:27:15.926Z,79.52
2017-11-22T11:28:15.924Z,79.49
2017-11-22T11:29:15.922Z,79.29
2017-11-22T11:30:15.921Z,79.00
2017-11-22T11:31:15.922Z,79.62
2017-11-22T11:32:15.923Z,79.62
2017-11-22T11:33:15.924Z,79.14
2017-11-22T11:34:15.926Z,78.86
2017-11-22T11:35:15.923Z,79.10
2017-11-22T11:36:15.920Z,79.20
2017-11-22T11:37:15.920Z,79.00
2017-11-22T11:38:15.919Z,79.52
2017-11-22T11:39:15.920Z,78.81
2017-11-22T11:40:15.913Z,79.00
2017-11-22T11:41:15.911Z,79.39
2017-11-22T11:42:15.910Z,78.81
2017-11-22T11:43:15.909Z,79.29
2017-11-22T11:44:15.908Z,79.10
2017-11-22T11:45:15.907Z,78.63
2017-11-22T11:46:15.906Z,79.00
2017-11-22T11:47:15.904Z,79.39
2017-11-22T11:48:15.907Z,79.29
2017-11-22T11:49:15.905Z,79.00
2017-11-22T11:50:15.905Z,78.78
2017-11-22T11:51:15.902Z,78.72
2017-11-22T11:52:15.900Z,79.29
2017-11-22T11:53:15.896Z,79.20
2017-11-22T11:54:15.897Z,79.00
2017-11-22T11:55:15.893Z,79.35
2017-11-22T11:56:15.893Z,79.16
2017-11-22T11:57:15.894Z,79.16
2017-11-22T11:58:15.892Z,79.06
2017-11-22T11:59:15.894Z,79.20
2017-11-22T12:00:15.887Z,79.20
2017-11-22T12:01:15.885Z,79.10
2017-11-22T12:02:15.886Z,79.68
2017-11-22T12:03:15.883Z,78.81
2017-11-22T12:04:15.877Z,79.00
2017-11-22T12:05:15.874Z,79.00
2017-11-22T12:06:15.877Z,78.91
2017-11-22T12:07:15.871Z,79.00
2017-11-22T12:08:15.868Z,79.20
2017-11-22T12:09:15.866Z,78.63
2017-11-22T12:10:15.864Z,79.20
2017-11-22T12:11:15.870Z,78.43
2017-11-22T12:12:15.863Z,78.43
2017-11-22T12:13:15.863Z,78.43
2017-11-22T12:14:15.860Z,78.97
2017-11-22T12:15:15.859Z,78.91
2017-11-22T12:16:15.855Z,78.97
2017-11-22T12:17:15.855Z,78.91
2017-11-22T12:18:15.851Z,78.81
2017-11-22T12:19:15.848Z,78.91
2017-11-22T12:20:15.842Z,79.10
2017-11-22T12:21:15.838Z,78.91
2017-11-22T12:22:15.836Z,78.81
2017-11-22T12:23:15.836Z,79.00
2017-11-22T12:24:15.834Z,78.81
2017-11-22T12:25:15.830Z,78.81
2017-11-22T12:26:15.830Z,78.63
2017-11-22T12:27:15.823Z,78.14
2017-11-22T12:28:15.826Z,78.24
2017-11-22T12:29:15.823Z,78.72
2017-11-22T12:30:15.821Z,78.72
2017-11-22T12:31:15.820Z,78.53
2017-11-22T12:32:15.815Z,78.53
2017-11-22T12:33:15.812Z,78.14
2017-11-22T12:34:15.809Z,78.53
2017-11-22T12:35:15.807Z,78.43
2017-11-22T12:36:15.799Z,78.24
2017-11-22T12:37:15.797Z,78.72
2017-11-22T12:38:15.793Z,79.10
2017-11-22T12:39:15.791Z,78.43
2017-11-22T12:40:15.788Z,78.43
2017-11-22T12:41:15.786Z,79.00
2017-11-22T12:42:15.783Z,78.87
2017-11-22T12:43:15.782Z,78.34
2017-11-22T12:44:15.781Z,78.53
2017-11-22T12:45:15.777Z,78.34
2017-11-22T12:46:15.775Z,78.39
2017-11-22T12:47:15.773Z,78.53
2017-11-22T12:48:15.774Z,78.63
2017-11-22T12:49:15.766Z,79.20
2017-11-22T12:50:15.766Z,79.00
2017-11-22T12:51:15.760Z,78.81
2017-11-22T12:52:15.752Z,78.81